sensor_id;sensor_type;location;lat;lon;timestamp;temperature;humidity
4356;DHT22;64374;51.482;7.408;2022-12-24T00:01:37;11.70;99.90
4356;DHT22;64374;51.482;7.408;2022-12-24T00:04:06;11.70;99.90
4356;DHT22;64374;51.482;7.408;2022-12-24T00:06:35;11.70;99.90
4356;DHT22;64374;51.482;7.408;2022-12-24T00:09:03;11.50;99.90
4356;DHT22;64374;51.482;7.408;2022-12-24T00:11:32;11.40;99.90
4356;DHT22;64374;51.482;7.408;2022-12-24T00:14:00;11.40;99.90
4356;DHT22;64374;51.482;7.408;2022-12-24T00:16:28;11.40;99.90
4356;DHT22;64374;51.482;7.408;2022-12-24T00:18:59;11.30;99.90
4356;DHT22;64374;51.482;7.408;2022-12-24T00:21:31;11.50;99.90
4356;DHT22;64374;51.482;7.408;2022-12-24T00:24:01;11.50;99.90
4356;DHT22;64374;51.482;7.408;2022-12-24T00:26:32;11.60;99.90
4356;DHT22;64374;51.482;7.408;2022-12-24T00:29:01;11.80;99.90
4356;DHT22;64374;51.482;7.408;2022-12-24T00:31:29;11.80;99.90
4356;DHT22;64374;51.482;7.408;2022-12-24T00:33:58;11.60;99.90
4356;DHT22;64374;51.482;7.408;2022-12-24T00:36:27;11.60;99.90
4356;DHT22;64374;51.482;7.408;2022-12-24T00:38:59;11.70;99.90
4356;DHT22;64374;51.482;7.408;2022-12-24T00:41:30;11.60;99.90
4356;DHT22;64374;51.482;7.408;2022-12-24T00:44:00;11.70;99.90
4356;DHT22;64374;51.482;7.408;2022-12-24T00:46:33;11.70;99.90
4356;DHT22;64374;51.482;7.408;2022-12-24T00:49:03;11.70;99.90
4356;DHT22;64374;51.482;7.408;2022-12-24T00:51:35;11.70;99.90
4356;DHT22;64374;51.482;7.408;2022-12-24T00:54:05;11.70;99.90
4356;DHT22;64374;51.482;7.408;2022-12-24T00:56:34;11.60;99.90
4356;DHT22;64374;51.482;7.408;2022-12-24T00:59:05;11.70;99.90
4356;DHT22;64374;51.482;7.408;2022-12-24T01:01:33;11.70;99.90
4356;DHT22;64374;51.482;7.408;2022-12-24T01:04:02;11.50;99.90
4356;DHT22;64374;51.482;7.408;2022-12-24T01:06:49;11.60;99.90
4356;DHT22;64374;51.482;7.408;2022-12-24T01:09:18;11.70;99.90
4356;DHT22;64374;51.482;7.408;2022-12-24T01:11:47;11.70;99.90
4356;DHT22;64374;51.482;7.408;2022-12-24T01:14:15;11.40;99.90
4356;DHT22;64374;51.482;7.408;2022-12-24T01:16:44;11.50;99.90
4356;DHT22;64374;51.482;7.408;2022-12-24T01:19:12;11.50;99.90
4356;DHT22;64374;51.482;7.408;2022-12-24T01:21:41;11.50;99.90
4356;DHT22;64374;51.482;7.408;2022-12-24T01:24:13;11.50;99.90
4356;DHT22;64374;51.482;7.408;2022-12-24T01:26:43;11.50;99.90
4356;DHT22;64374;51.482;7.408;2022-12-24T01:29:12;11.50;99.90
4356;DHT22;64374;51.482;7.408;2022-12-24T01:31:40;11.40;99.90
4356;DHT22;64374;51.482;7.408;2022-12-24T01:34:09;11.50;99.90
4356;DHT22;64374;51.482;7.408;2022-12-24T01:36:38;11.50;99.90
4356;DHT22;64374;51.482;7.408;2022-12-24T01:39:06;11.50;99.90
4356;DHT22;64374;51.482;7.408;2022-12-24T01:41:35;11.30;99.90
4356;DHT22;64374;51.482;7.408;2022-12-24T01:44:24;11.50;99.90
4356;DHT22;64374;51.482;7.408;2022-12-24T01:47:07;11.50;99.90
4356;DHT22;64374;51.482;7.408;2022-12-24T01:49:39;11.40;99.90
4356;DHT22;64374;51.482;7.408;2022-12-24T01:52:11;11.50;99.90
4356;DHT22;64374;51.482;7.408;2022-12-24T01:54:45;11.30;99.90
4356;DHT22;64374;51.482;7.408;2022-12-24T01:57:18;11.40;99.90
4356;DHT22;64374;51.482;7.408;2022-12-24T02:00:02;11.30;99.90
4356;DHT22;64374;51.482;7.408;2022-12-24T02:02:33;11.20;99.90
4356;DHT22;64374;51.482;7.408;2022-12-24T02:05:05;11.50;99.90
4356;DHT22;64374;51.482;7.408;2022-12-24T02:07:37;11.40;99.90
4356;DHT22;64374;51.482;7.408;2022-12-24T02:10:07;11.50;99.90
4356;DHT22;64374;51.482;7.408;2022-12-24T02:12:38;11.40;99.90
4356;DHT22;64374;51.482;7.408;2022-12-24T02:15:11;11.50;99.90
4356;DHT22;64374;51.482;7.408;2022-12-24T02:17:46;11.50;99.90
4356;DHT22;64374;51.482;7.408;2022-12-24T02:20:38;11.30;99.90
4356;DHT22;64374;51.482;7.408;2022-12-24T02:26:33;11.20;99.90
4356;DHT22;64374;51.482;7.408;2022-12-24T02:29:20;11.40;99.90
4356;DHT22;64374;51.482;7.408;2022-12-24T02:31:58;11.30;99.90
4356;DHT22;64374;51.482;7.408;2022-12-24T02:34:33;11.40;99.90
4356;DHT22;64374;51.482;7.408;2022-12-24T02:37:06;11.40;99.90
4356;DHT22;64374;51.482;7.408;2022-12-24T02:39:42;11.50;99.90
4356;DHT22;64374;51.482;7.408;2022-12-24T02:42:15;11.30;99.90
4356;DHT22;64374;51.482;7.408;2022-12-24T02:44:47;11.20;99.90
4356;DHT22;64374;51.482;7.408;2022-12-24T02:47:21;11.20;99.90
4356;DHT22;64374;51.482;7.408;2022-12-24T02:49:50;11.30;99.90
4356;DHT22;64374;51.482;7.408;2022-12-24T02:52:29;11.50;99.90
4356;DHT22;64374;51.482;7.408;2022-12-24T02:55:03;11.40;99.90
4356;DHT22;64374;51.482;7.408;2022-12-24T02:57:42;11.50;99.90
4356;DHT22;64374;51.482;7.408;2022-12-24T03:00:14;11.30;99.90
4356;DHT22;64374;51.482;7.408;2022-12-24T03:03:06;11.30;99.90
4356;DHT22;64374;51.482;7.408;2022-12-24T03:05:44;11.40;99.90
4356;DHT22;64374;51.482;7.408;2022-12-24T03:08:19;11.30;99.90
4356;DHT22;64374;51.482;7.408;2022-12-24T03:10:54;11.20;99.90
4356;DHT22;64374;51.482;7.408;2022-12-24T03:13:27;11.20;99.90
4356;DHT22;64374;51.482;7.408;2022-12-24T03:15:56;11.30;99.90
4356;DHT22;64374;51.482;7.408;2022-12-24T03:18:27;11.20;99.90
4356;DHT22;64374;51.482;7.408;2022-12-24T03:21:00;11.00;99.90
4356;DHT22;64374;51.482;7.408;2022-12-24T03:23:31;11.10;99.90
4356;DHT22;64374;51.482;7.408;2022-12-24T03:26:05;11.30;99.90
4356;DHT22;64374;51.482;7.408;2022-12-24T03:28:44;11.30;99.90
4356;DHT22;64374;51.482;7.408;2022-12-24T03:31:13;11.40;99.90
4356;DHT22;64374;51.482;7.408;2022-12-24T03:33:44;11.40;99.90
4356;DHT22;64374;51.482;7.408;2022-12-24T03:36:13;11.40;99.90
4356;DHT22;64374;51.482;7.408;2022-12-24T03:38:42;11.30;99.90
4356;DHT22;64374;51.482;7.408;2022-12-24T03:41:11;11.50;99.90
4356;DHT22;64374;51.482;7.408;2022-12-24T03:43:39;11.50;99.90
4356;DHT22;64374;51.482;7.408;2022-12-24T03:46:07;11.50;99.90
4356;DHT22;64374;51.482;7.408;2022-12-24T03:48:37;11.30;99.90
4356;DHT22;64374;51.482;7.408;2022-12-24T03:51:16;11.30;99.90
4356;DHT22;64374;51.482;7.408;2022-12-24T03:53:45;11.50;99.90
4356;DHT22;64374;51.482;7.408;2022-12-24T03:56:14;11.30;99.90
4356;DHT22;64374;51.482;7.408;2022-12-24T03:58:49;11.30;99.90
4356;DHT22;64374;51.482;7.408;2022-12-24T04:01:18;11.50;99.90
4356;DHT22;64374;51.482;7.408;2022-12-24T04:03:46;11.30;99.90
4356;DHT22;64374;51.482;7.408;2022-12-24T04:06:16;11.30;99.90
4356;DHT22;64374;51.482;7.408;2022-12-24T04:08:45;11.40;99.90
4356;DHT22;64374;51.482;7.408;2022-12-24T04:11:14;11.50;99.90
4356;DHT22;64374;51.482;7.408;2022-12-24T04:13:44;11.40;99.90
4356;DHT22;64374;51.482;7.408;2022-12-24T04:16:15;11.40;99.90
4356;DHT22;64374;51.482;7.408;2022-12-24T04:18:48;11.60;99.90
4356;DHT22;64374;51.482;7.408;2022-12-24T04:21:18;11.60;99.90
4356;DHT22;64374;51.482;7.408;2022-12-24T04:23:47;11.60;99.90
4356;DHT22;64374;51.482;7.408;2022-12-24T04:26:18;11.70;99.90
4356;DHT22;64374;51.482;7.408;2022-12-24T04:28:46;11.60;99.90
4356;DHT22;64374;51.482;7.408;2022-12-24T04:31:16;11.60;99.90
4356;DHT22;64374;51.482;7.408;2022-12-24T04:33:45;11.50;99.90
4356;DHT22;64374;51.482;7.408;2022-12-24T04:36:18;11.40;99.90
4356;DHT22;64374;51.482;7.408;2022-12-24T04:38:49;11.50;99.90
4356;DHT22;64374;51.482;7.408;2022-12-24T04:41:21;11.30;99.90
4356;DHT22;64374;51.482;7.408;2022-12-24T04:43:52;11.40;99.90
4356;DHT22;64374;51.482;7.408;2022-12-24T04:46:24;11.60;99.90
4356;DHT22;64374;51.482;7.408;2022-12-24T04:49:01;11.70;99.90
4356;DHT22;64374;51.482;7.408;2022-12-24T04:51:31;11.60;99.90
4356;DHT22;64374;51.482;7.408;2022-12-24T04:54:02;11.60;99.90
4356;DHT22;64374;51.482;7.408;2022-12-24T04:56:32;11.50;99.90
4356;DHT22;64374;51.482;7.408;2022-12-24T04:59:11;11.30;99.90
4356;DHT22;64374;51.482;7.408;2022-12-24T05:01:40;11.20;99.90
4356;DHT22;64374;51.482;7.408;2022-12-24T05:04:09;11.30;99.90
4356;DHT22;64374;51.482;7.408;2022-12-24T05:06:39;11.50;99.90
4356;DHT22;64374;51.482;7.408;2022-12-24T05:09:07;11.50;99.90
4356;DHT22;64374;51.482;7.408;2022-12-24T05:11:38;11.20;99.90
4356;DHT22;64374;51.482;7.408;2022-12-24T05:14:08;11.20;99.90
4356;DHT22;64374;51.482;7.408;2022-12-24T05:16:36;11.20;99.90
4356;DHT22;64374;51.482;7.408;2022-12-24T05:19:08;11.20;99.90
4356;DHT22;64374;51.482;7.408;2022-12-24T05:21:38;11.10;99.90
4356;DHT22;64374;51.482;7.408;2022-12-24T05:24:08;11.10;99.90
4356;DHT22;64374;51.482;7.408;2022-12-24T05:27:03;11.10;99.90
4356;DHT22;64374;51.482;7.408;2022-12-24T05:29:34;11.20;99.90
4356;DHT22;64374;51.482;7.408;2022-12-24T05:32:02;11.30;99.90
4356;DHT22;64374;51.482;7.408;2022-12-24T05:34:31;11.20;99.90
4356;DHT22;64374;51.482;7.408;2022-12-24T05:37:03;11.40;99.90
4356;DHT22;64374;51.482;7.408;2022-12-24T05:39:31;11.50;99.90
4356;DHT22;64374;51.482;7.408;2022-12-24T05:41:59;11.60;99.90
4356;DHT22;64374;51.482;7.408;2022-12-24T05:44:30;11.40;99.90
4356;DHT22;64374;51.482;7.408;2022-12-24T05:46:59;11.50;99.90
4356;DHT22;64374;51.482;7.408;2022-12-24T05:49:29;11.60;99.90
4356;DHT22;64374;51.482;7.408;2022-12-24T05:51:58;11.50;99.90
4356;DHT22;64374;51.482;7.408;2022-12-24T05:54:28;11.30;99.90
4356;DHT22;64374;51.482;7.408;2022-12-24T05:56:59;11.40;99.90
4356;DHT22;64374;51.482;7.408;2022-12-24T05:59:27;11.60;99.90
4356;DHT22;64374;51.482;7.408;2022-12-24T06:01:56;11.20;99.90
4356;DHT22;64374;51.482;7.408;2022-12-24T06:04:25;11.30;99.90
4356;DHT22;64374;51.482;7.408;2022-12-24T06:06:55;11.40;99.90
4356;DHT22;64374;51.482;7.408;2022-12-24T06:09:23;11.40;99.90
4356;DHT22;64374;51.482;7.408;2022-12-24T06:11:54;11.30;99.90
4356;DHT22;64374;51.482;7.408;2022-12-24T06:14:22;11.30;99.90
4356;DHT22;64374;51.482;7.408;2022-12-24T06:16:51;11.30;99.90
4356;DHT22;64374;51.482;7.408;2022-12-24T06:19:19;11.40;99.90
4356;DHT22;64374;51.482;7.408;2022-12-24T06:21:48;11.40;99.90
4356;DHT22;64374;51.482;7.408;2022-12-24T06:24:17;11.30;99.90
4356;DHT22;64374;51.482;7.408;2022-12-24T06:26:56;11.30;99.90
4356;DHT22;64374;51.482;7.408;2022-12-24T06:29:25;11.40;99.90
4356;DHT22;64374;51.482;7.408;2022-12-24T06:31:53;11.50;99.90
4356;DHT22;64374;51.482;7.408;2022-12-24T06:34:21;11.50;99.90
4356;DHT22;64374;51.482;7.408;2022-12-24T06:36:49;11.50;99.90
4356;DHT22;64374;51.482;7.408;2022-12-24T06:39:18;11.60;99.90
4356;DHT22;64374;51.482;7.408;2022-12-24T06:41:47;11.70;99.90
4356;DHT22;64374;51.482;7.408;2022-12-24T06:44:16;11.50;99.90
4356;DHT22;64374;51.482;7.408;2022-12-24T06:46:45;11.30;99.90
4356;DHT22;64374;51.482;7.408;2022-12-24T06:49:16;11.30;99.90
4356;DHT22;64374;51.482;7.408;2022-12-24T06:51:47;11.30;99.90
4356;DHT22;64374;51.482;7.408;2022-12-24T06:54:16;11.50;99.90
4356;DHT22;64374;51.482;7.408;2022-12-24T06:56:46;11.50;99.90
4356;DHT22;64374;51.482;7.408;2022-12-24T06:59:15;11.50;99.90
4356;DHT22;64374;51.482;7.408;2022-12-24T07:01:46;11.20;99.90
4356;DHT22;64374;51.482;7.408;2022-12-24T07:04:18;11.30;99.90
4356;DHT22;64374;51.482;7.408;2022-12-24T07:06:47;11.20;99.90
4356;DHT22;64374;51.482;7.408;2022-12-24T07:09:15;11.30;99.90
4356;DHT22;64374;51.482;7.408;2022-12-24T07:11:44;11.40;99.90
4356;DHT22;64374;51.482;7.408;2022-12-24T07:14:15;11.40;99.90
4356;DHT22;64374;51.482;7.408;2022-12-24T07:16:47;11.20;99.90
4356;DHT22;64374;51.482;7.408;2022-12-24T07:19:24;11.20;99.90
4356;DHT22;64374;51.482;7.408;2022-12-24T07:21:52;11.40;99.90
4356;DHT22;64374;51.482;7.408;2022-12-24T07:24:21;11.40;99.90
4356;DHT22;64374;51.482;7.408;2022-12-24T07:26:49;11.30;99.90
4356;DHT22;64374;51.482;7.408;2022-12-24T07:29:18;11.10;99.90
4356;DHT22;64374;51.482;7.408;2022-12-24T07:31:47;11.20;99.90
4356;DHT22;64374;51.482;7.408;2022-12-24T07:34:16;11.30;99.90
4356;DHT22;64374;51.482;7.408;2022-12-24T07:36:45;11.30;99.90
4356;DHT22;64374;51.482;7.408;2022-12-24T07:39:13;11.30;99.90
4356;DHT22;64374;51.482;7.408;2022-12-24T07:41:41;11.30;99.90
4356;DHT22;64374;51.482;7.408;2022-12-24T07:44:13;11.40;99.90
4356;DHT22;64374;51.482;7.408;2022-12-24T07:46:41;11.30;99.90
4356;DHT22;64374;51.482;7.408;2022-12-24T07:49:11;11.30;99.90
4356;DHT22;64374;51.482;7.408;2022-12-24T07:51:39;11.50;99.90
4356;DHT22;64374;51.482;7.408;2022-12-24T07:54:07;11.60;99.90
4356;DHT22;64374;51.482;7.408;2022-12-24T07:56:36;11.80;99.90
4356;DHT22;64374;51.482;7.408;2022-12-24T07:59:04;11.70;99.90
4356;DHT22;64374;51.482;7.408;2022-12-24T08:01:33;11.60;99.90
4356;DHT22;64374;51.482;7.408;2022-12-24T08:04:01;11.50;99.90
4356;DHT22;64374;51.482;7.408;2022-12-24T08:06:31;11.50;99.90
4356;DHT22;64374;51.482;7.408;2022-12-24T08:08:59;11.30;99.90
4356;DHT22;64374;51.482;7.408;2022-12-24T08:11:28;11.50;99.90
4356;DHT22;64374;51.482;7.408;2022-12-24T08:13:56;11.50;99.90
4356;DHT22;64374;51.482;7.408;2022-12-24T08:16:24;11.60;99.90
4356;DHT22;64374;51.482;7.408;2022-12-24T08:18:52;11.50;99.90
4356;DHT22;64374;51.482;7.408;2022-12-24T08:21:24;11.70;99.90
4356;DHT22;64374;51.482;7.408;2022-12-24T08:23:55;11.90;99.90
4356;DHT22;64374;51.482;7.408;2022-12-24T08:26:23;11.70;99.90
4356;DHT22;64374;51.482;7.408;2022-12-24T08:28:51;11.60;99.90
4356;DHT22;64374;51.482;7.408;2022-12-24T08:31:20;11.60;99.90
4356;DHT22;64374;51.482;7.408;2022-12-24T08:33:48;11.90;99.90
4356;DHT22;64374;51.482;7.408;2022-12-24T08:36:19;11.80;99.90
4356;DHT22;64374;51.482;7.408;2022-12-24T08:38:47;11.70;99.90
4356;DHT22;64374;51.482;7.408;2022-12-24T08:41:19;11.50;99.90
4356;DHT22;64374;51.482;7.408;2022-12-24T08:43:48;11.70;99.90
4356;DHT22;64374;51.482;7.408;2022-12-24T08:46:18;11.60;99.90
4356;DHT22;64374;51.482;7.408;2022-12-24T08:48:49;11.60;99.90
4356;DHT22;64374;51.482;7.408;2022-12-24T08:51:18;11.60;99.90
4356;DHT22;64374;51.482;7.408;2022-12-24T08:53:46;11.60;99.90
4356;DHT22;64374;51.482;7.408;2022-12-24T08:56:14;12.00;99.90
4356;DHT22;64374;51.482;7.408;2022-12-24T08:58:44;11.80;99.90
4356;DHT22;64374;51.482;7.408;2022-12-24T09:01:19;11.70;99.90
4356;DHT22;64374;51.482;7.408;2022-12-24T09:03:48;11.50;99.90
4356;DHT22;64374;51.482;7.408;2022-12-24T09:06:16;11.50;99.90
4356;DHT22;64374;51.482;7.408;2022-12-24T09:08:45;11.60;99.90
4356;DHT22;64374;51.482;7.408;2022-12-24T09:11:15;11.50;99.90
4356;DHT22;64374;51.482;7.408;2022-12-24T09:13:45;11.50;99.90
4356;DHT22;64374;51.482;7.408;2022-12-24T09:16:13;11.60;99.90
4356;DHT22;64374;51.482;7.408;2022-12-24T09:18:50;11.50;99.90
4356;DHT22;64374;51.482;7.408;2022-12-24T09:21:18;11.50;99.90
4356;DHT22;64374;51.482;7.408;2022-12-24T09:23:47;11.60;99.90
4356;DHT22;64374;51.482;7.408;2022-12-24T09:26:19;11.50;99.90
4356;DHT22;64374;51.482;7.408;2022-12-24T09:28:50;11.70;99.90
4356;DHT22;64374;51.482;7.408;2022-12-24T09:31:21;11.30;99.90
4356;DHT22;64374;51.482;7.408;2022-12-24T09:33:52;11.40;99.90
4356;DHT22;64374;51.482;7.408;2022-12-24T09:36:21;11.70;99.90
4356;DHT22;64374;51.482;7.408;2022-12-24T09:38:50;11.70;99.90
4356;DHT22;64374;51.482;7.408;2022-12-24T09:41:31;11.50;99.90
4356;DHT22;64374;51.482;7.408;2022-12-24T09:44:18;11.90;99.90
4356;DHT22;64374;51.482;7.408;2022-12-24T09:46:49;11.90;99.90
4356;DHT22;64374;51.482;7.408;2022-12-24T09:49:30;11.70;99.90
4356;DHT22;64374;51.482;7.408;2022-12-24T09:52:06;11.90;99.90
4356;DHT22;64374;51.482;7.408;2022-12-24T09:54:37;11.70;99.90
4356;DHT22;64374;51.482;7.408;2022-12-24T09:57:20;11.80;99.90
4356;DHT22;64374;51.482;7.408;2022-12-24T09:59:52;12.00;99.90
4356;DHT22;64374;51.482;7.408;2022-12-24T10:02:21;11.70;99.90
4356;DHT22;64374;51.482;7.408;2022-12-24T10:04:49;11.60;99.90
4356;DHT22;64374;51.482;7.408;2022-12-24T10:07:30;11.90;99.90
4356;DHT22;64374;51.482;7.408;2022-12-24T10:10:12;11.80;99.90
4356;DHT22;64374;51.482;7.408;2022-12-24T10:12:47;11.70;99.90
4356;DHT22;64374;51.482;7.408;2022-12-24T10:15:26;11.90;99.90
4356;DHT22;64374;51.482;7.408;2022-12-24T10:18:09;11.80;99.90
4356;DHT22;64374;51.482;7.408;2022-12-24T10:20:44;11.80;99.90
4356;DHT22;64374;51.482;7.408;2022-12-24T10:23:20;11.80;99.90
4356;DHT22;64374;51.482;7.408;2022-12-24T10:25:58;11.70;99.90
4356;DHT22;64374;51.482;7.408;2022-12-24T10:28:33;12.00;99.90
4356;DHT22;64374;51.482;7.408;2022-12-24T10:31:07;11.70;99.90
4356;DHT22;64374;51.482;7.408;2022-12-24T10:33:39;11.70;99.90
4356;DHT22;64374;51.482;7.408;2022-12-24T10:36:13;11.90;99.90
4356;DHT22;64374;51.482;7.408;2022-12-24T10:38:44;11.80;99.90
4356;DHT22;64374;51.482;7.408;2022-12-24T10:41:13;11.80;99.90
4356;DHT22;64374;51.482;7.408;2022-12-24T10:43:43;12.10;99.90
4356;DHT22;64374;51.482;7.408;2022-12-24T10:46:17;12.20;99.90
4356;DHT22;64374;51.482;7.408;2022-12-24T10:48:52;12.20;99.90
4356;DHT22;64374;51.482;7.408;2022-12-24T10:51:29;12.00;99.90
4356;DHT22;64374;51.482;7.408;2022-12-24T10:54:05;12.00;99.90
4356;DHT22;64374;51.482;7.408;2022-12-24T10:56:40;12.20;99.90
4356;DHT22;64374;51.482;7.408;2022-12-24T10:59:23;12.20;99.90
4356;DHT22;64374;51.482;7.408;2022-12-24T11:01:54;12.10;99.90
4356;DHT22;64374;51.482;7.408;2022-12-24T11:04:24;12.20;99.90
4356;DHT22;64374;51.482;7.408;2022-12-24T11:06:57;12.30;99.90
4356;DHT22;64374;51.482;7.408;2022-12-24T11:09:27;12.40;99.90
4356;DHT22;64374;51.482;7.408;2022-12-24T11:12:05;12.10;99.90
4356;DHT22;64374;51.482;7.408;2022-12-24T11:14:42;12.10;99.90
4356;DHT22;64374;51.482;7.408;2022-12-24T11:17:21;12.10;99.90
4356;DHT22;64374;51.482;7.408;2022-12-24T11:19:51;11.90;99.90
4356;DHT22;64374;51.482;7.408;2022-12-24T11:22:23;11.70;99.90
4356;DHT22;64374;51.482;7.408;2022-12-24T11:25:01;11.90;99.90
4356;DHT22;64374;51.482;7.408;2022-12-24T11:27:33;11.90;99.90
4356;DHT22;64374;51.482;7.408;2022-12-24T11:30:24;12.00;99.90
4356;DHT22;64374;51.482;7.408;2022-12-24T11:33:18;11.90;99.90
4356;DHT22;64374;51.482;7.408;2022-12-24T11:36:03;12.20;99.90
4356;DHT22;64374;51.482;7.408;2022-12-24T11:38:33;12.20;99.90
4356;DHT22;64374;51.482;7.408;2022-12-24T11:41:10;12.10;99.90
4356;DHT22;64374;51.482;7.408;2022-12-24T11:43:43;12.40;99.90
4356;DHT22;64374;51.482;7.408;2022-12-24T11:46:20;12.20;99.90
4356;DHT22;64374;51.482;7.408;2022-12-24T11:49:05;12.10;99.90
4356;DHT22;64374;51.482;7.408;2022-12-24T11:51:34;12.30;99.90
4356;DHT22;64374;51.482;7.408;2022-12-24T11:54:08;12.30;99.90
4356;DHT22;64374;51.482;7.408;2022-12-24T11:56:44;12.40;99.90
4356;DHT22;64374;51.482;7.408;2022-12-24T11:59:19;12.40;99.90
4356;DHT22;64374;51.482;7.408;2022-12-24T12:01:55;12.80;99.90
4356;DHT22;64374;51.482;7.408;2022-12-24T12:04:32;12.70;99.90
4356;DHT22;64374;51.482;7.408;2022-12-24T12:07:10;12.50;99.90
4356;DHT22;64374;51.482;7.408;2022-12-24T12:09:44;12.30;99.90
4356;DHT22;64374;51.482;7.408;2022-12-24T12:12:18;12.60;99.90
4356;DHT22;64374;51.482;7.408;2022-12-24T12:14:50;12.50;99.90
4356;DHT22;64374;51.482;7.408;2022-12-24T12:17:26;12.40;99.90
4356;DHT22;64374;51.482;7.408;2022-12-24T12:19:59;12.50;99.90
4356;DHT22;64374;51.482;7.408;2022-12-24T12:22:36;12.80;99.90
4356;DHT22;64374;51.482;7.408;2022-12-24T12:25:16;12.80;99.90
4356;DHT22;64374;51.482;7.408;2022-12-24T12:27:49;12.80;99.90
4356;DHT22;64374;51.482;7.408;2022-12-24T12:30:20;12.60;99.90
4356;DHT22;64374;51.482;7.408;2022-12-24T12:32:52;12.50;99.90
4356;DHT22;64374;51.482;7.408;2022-12-24T12:35:28;12.50;99.90
4356;DHT22;64374;51.482;7.408;2022-12-24T12:38:00;12.20;99.90
4356;DHT22;64374;51.482;7.408;2022-12-24T12:40:42;12.30;99.90
4356;DHT22;64374;51.482;7.408;2022-12-24T12:43:23;12.00;99.90
4356;DHT22;64374;51.482;7.408;2022-12-24T12:45:59;12.10;99.90
4356;DHT22;64374;51.482;7.408;2022-12-24T12:48:53;12.30;99.90
4356;DHT22;64374;51.482;7.408;2022-12-24T12:51:39;12.60;99.90
4356;DHT22;64374;51.482;7.408;2022-12-24T12:54:24;12.80;99.90
4356;DHT22;64374;51.482;7.408;2022-12-24T12:56:59;12.70;99.90
4356;DHT22;64374;51.482;7.408;2022-12-24T12:59:32;12.90;99.90
4356;DHT22;64374;51.482;7.408;2022-12-24T13:02:22;13.00;99.90
4356;DHT22;64374;51.482;7.408;2022-12-24T13:05:30;12.80;99.90
4356;DHT22;64374;51.482;7.408;2022-12-24T13:11:04;12.70;99.90
4356;DHT22;64374;51.482;7.408;2022-12-24T13:13:48;12.20;99.90
4356;DHT22;64374;51.482;7.408;2022-12-24T13:19:48;12.90;99.90
4356;DHT22;64374;51.482;7.408;2022-12-24T13:22:26;13.10;99.90
4356;DHT22;64374;51.482;7.408;2022-12-24T13:24:56;13.50;99.90
4356;DHT22;64374;51.482;7.408;2022-12-24T13:27:26;13.70;99.90
4356;DHT22;64374;51.482;7.408;2022-12-24T13:29:58;14.00;99.90
4356;DHT22;64374;51.482;7.408;2022-12-24T13:32:46;13.50;99.90
4356;DHT22;64374;51.482;7.408;2022-12-24T13:38:49;13.40;99.90
4356;DHT22;64374;51.482;7.408;2022-12-24T13:41:50;13.50;99.90
4356;DHT22;64374;51.482;7.408;2022-12-24T13:44:28;13.40;99.90
4356;DHT22;64374;51.482;7.408;2022-12-24T13:47:20;13.20;99.90
4356;DHT22;64374;51.482;7.408;2022-12-24T13:50:20;13.20;99.90
4356;DHT22;64374;51.482;7.408;2022-12-24T13:52:50;12.90;99.90
4356;DHT22;64374;51.482;7.408;2022-12-24T13:55:21;13.10;99.90
4356;DHT22;64374;51.482;7.408;2022-12-24T13:57:56;13.20;99.90
4356;DHT22;64374;51.482;7.408;2022-12-24T14:00:31;13.40;99.90
4356;DHT22;64374;51.482;7.408;2022-12-24T14:03:18;13.60;99.90
4356;DHT22;64374;51.482;7.408;2022-12-24T14:05:53;13.70;99.90
4356;DHT22;64374;51.482;7.408;2022-12-24T14:08:30;13.60;99.90
4356;DHT22;64374;51.482;7.408;2022-12-24T14:11:05;13.60;99.90
4356;DHT22;64374;51.482;7.408;2022-12-24T14:14:11;13.40;99.90
4356;DHT22;64374;51.482;7.408;2022-12-24T14:16:53;13.20;99.90
4356;DHT22;64374;51.482;7.408;2022-12-24T14:19:23;13.10;99.90
4356;DHT22;64374;51.482;7.408;2022-12-24T14:22:16;13.00;99.90
4356;DHT22;64374;51.482;7.408;2022-12-24T14:24:50;12.90;99.90
4356;DHT22;64374;51.482;7.408;2022-12-24T14:27:32;13.00;99.90
4356;DHT22;64374;51.482;7.408;2022-12-24T14:30:05;12.90;99.90
4356;DHT22;64374;51.482;7.408;2022-12-24T14:32:37;12.70;99.90
4356;DHT22;64374;51.482;7.408;2022-12-24T14:35:14;12.90;99.90
4356;DHT22;64374;51.482;7.408;2022-12-24T14:37:46;13.00;99.90
4356;DHT22;64374;51.482;7.408;2022-12-24T14:40:21;12.80;99.90
4356;DHT22;64374;51.482;7.408;2022-12-24T14:43:00;12.70;99.90
4356;DHT22;64374;51.482;7.408;2022-12-24T14:45:36;12.70;99.90
4356;DHT22;64374;51.482;7.408;2022-12-24T14:48:16;12.60;99.90
4356;DHT22;64374;51.482;7.408;2022-12-24T14:50:58;12.60;99.90
4356;DHT22;64374;51.482;7.408;2022-12-24T14:53:55;12.50;99.90
4356;DHT22;64374;51.482;7.408;2022-12-24T14:56:27;12.10;99.90
4356;DHT22;64374;51.482;7.408;2022-12-24T14:59:18;12.20;99.90
4356;DHT22;64374;51.482;7.408;2022-12-24T15:01:51;12.20;99.90
4356;DHT22;64374;51.482;7.408;2022-12-24T15:04:19;12.30;99.90
4356;DHT22;64374;51.482;7.408;2022-12-24T15:06:51;12.30;99.90
4356;DHT22;64374;51.482;7.408;2022-12-24T15:09:22;11.90;99.90
4356;DHT22;64374;51.482;7.408;2022-12-24T15:11:54;12.10;99.90
4356;DHT22;64374;51.482;7.408;2022-12-24T15:14:24;12.30;99.90
4356;DHT22;64374;51.482;7.408;2022-12-24T15:17:01;12.40;99.90
4356;DHT22;64374;51.482;7.408;2022-12-24T15:19:32;12.20;99.90
4356;DHT22;64374;51.482;7.408;2022-12-24T15:22:02;12.30;99.90
4356;DHT22;64374;51.482;7.408;2022-12-24T15:24:33;12.20;99.90
4356;DHT22;64374;51.482;7.408;2022-12-24T15:27:12;12.00;99.90
4356;DHT22;64374;51.482;7.408;2022-12-24T15:29:43;12.20;99.90
4356;DHT22;64374;51.482;7.408;2022-12-24T15:32:17;12.30;99.90
4356;DHT22;64374;51.482;7.408;2022-12-24T15:34:54;12.20;99.90
4356;DHT22;64374;51.482;7.408;2022-12-24T15:37:25;12.30;99.90
4356;DHT22;64374;51.482;7.408;2022-12-24T15:39:55;12.10;99.90
4356;DHT22;64374;51.482;7.408;2022-12-24T15:42:25;11.90;99.90
4356;DHT22;64374;51.482;7.408;2022-12-24T15:44:58;12.30;99.90
4356;DHT22;64374;51.482;7.408;2022-12-24T15:47:33;12.30;99.90
4356;DHT22;64374;51.482;7.408;2022-12-24T15:50:13;12.20;99.90
4356;DHT22;64374;51.482;7.408;2022-12-24T15:52:46;12.20;99.90
4356;DHT22;64374;51.482;7.408;2022-12-24T15:55:37;12.50;99.90
4356;DHT22;64374;51.482;7.408;2022-12-24T15:58:14;12.70;99.90
4356;DHT22;64374;51.482;7.408;2022-12-24T16:00:43;12.60;99.90
4356;DHT22;64374;51.482;7.408;2022-12-24T16:03:32;12.70;99.90
4356;DHT22;64374;51.482;7.408;2022-12-24T16:06:05;12.90;99.90
4356;DHT22;64374;51.482;7.408;2022-12-24T16:08:38;12.80;99.90
4356;DHT22;64374;51.482;7.408;2022-12-24T16:11:14;12.90;99.90
4356;DHT22;64374;51.482;7.408;2022-12-24T16:14:06;13.10;99.90
4356;DHT22;64374;51.482;7.408;2022-12-24T16:16:39;13.10;99.90
4356;DHT22;64374;51.482;7.408;2022-12-24T16:19:22;13.30;99.90
4356;DHT22;64374;51.482;7.408;2022-12-24T16:21:51;12.90;99.90
4356;DHT22;64374;51.482;7.408;2022-12-24T16:24:23;12.90;99.90
4356;DHT22;64374;51.482;7.408;2022-12-24T16:26:55;12.60;99.90
4356;DHT22;64374;51.482;7.408;2022-12-24T16:29:23;12.60;99.90
4356;DHT22;64374;51.482;7.408;2022-12-24T16:31:55;12.50;99.90
4356;DHT22;64374;51.482;7.408;2022-12-24T16:34:27;12.50;99.90
4356;DHT22;64374;51.482;7.408;2022-12-24T16:36:56;12.60;99.90